createdAt,value
2023-05-05T00:00:18.462Z,236.90
2023-05-05T00:01:04.059Z,237.12
2023-05-05T00:02:04.080Z,237.46
2023-05-05T00:03:04.130Z,237.74
2023-05-05T00:04:04.078Z,238.43
2023-05-05T00:05:04.264Z,238.05
2023-05-05T00:06:04.049Z,238.03
2023-05-05T00:07:04.022Z,238.07
2023-05-05T00:08:04.010Z,238.05
2023-05-05T00:09:03.958Z,237.06
2023-05-05T00:10:03.936Z,237.25
2023-05-05T00:11:03.912Z,237.63
2023-05-05T00:12:03.903Z,236.82
2023-05-05T00:13:03.995Z,236.59
2023-05-05T00:14:03.852Z,236.50
2023-05-05T00:15:06.471Z,237.31
2023-05-05T00:16:03.781Z,237.16
2023-05-05T00:17:03.767Z,237.65
2023-05-05T00:18:03.771Z,237.73
2023-05-05T00:19:03.698Z,237.75
2023-05-05T00:20:03.661Z,237.72
2023-05-05T00:21:03.636Z,237.81
2023-05-05T00:22:03.603Z,237.21
2023-05-05T00:23:03.571Z,237.30
2023-05-05T00:24:03.572Z,236.93
2023-05-05T00:25:03.524Z,237.27
2023-05-05T00:26:03.493Z,237.13
2023-05-05T00:27:03.511Z,236.70
2023-05-05T00:28:03.447Z,237.30
2023-05-05T00:29:03.419Z,236.25
2023-05-05T00:30:03.408Z,235.98
2023-05-05T00:31:03.393Z,236.59
2023-05-05T00:32:03.375Z,235.39
2023-05-05T00:33:03.381Z,236.44
2023-05-05T00:34:03.292Z,236.31
2023-05-05T00:35:03.278Z,236.56
2023-05-05T00:36:03.295Z,235.91
2023-05-05T00:37:03.265Z,235.95
2023-05-05T00:38:03.290Z,235.97
2023-05-05T00:39:03.335Z,236.47
2023-05-05T00:40:03.313Z,235.41
2023-05-05T00:41:03.335Z,236.23
2023-05-05T00:42:03.332Z,235.52
2023-05-05T00:43:03.392Z,235.00
2023-05-05T00:44:03.376Z,235.88
2023-05-05T00:45:03.371Z,235.34
2023-05-05T00:46:03.428Z,236.06
2023-05-05T00:47:03.417Z,235.11
2023-05-05T00:48:03.438Z,234.84
2023-05-05T00:49:03.501Z,236.05
2023-05-05T00:50:03.442Z,235.48
2023-05-05T00:51:03.467Z,235.36
2023-05-05T00:52:03.480Z,235.25
2023-05-05T00:53:03.515Z,234.63
2023-05-05T00:54:03.505Z,235.13
2023-05-05T00:55:03.533Z,235.27
2023-05-05T00:56:03.563Z,234.37
2023-05-05T00:57:03.570Z,235.99
2023-05-05T00:58:03.554Z,236.02
2023-05-05T00:59:03.499Z,235.95
2023-05-05T01:00:03.476Z,236.09
2023-05-05T01:01:03.477Z,235.23
2023-05-05T01:02:03.435Z,235.51
2023-05-05T01:03:03.577Z,235.48
2023-05-05T01:04:03.439Z,235.53
2023-05-05T01:05:03.376Z,235.62
2023-05-05T01:06:03.310Z,235.52
2023-05-05T01:07:03.290Z,235.60
2023-05-05T01:08:03.268Z,234.87
2023-05-05T01:09:03.254Z,235.79
2023-05-05T01:10:18.064Z,234.76
2023-05-05T01:11:04.189Z,234.83
2023-05-05T01:12:03.165Z,234.95
2023-05-05T01:13:03.185Z,235.27
2023-05-05T01:14:03.115Z,235.35
2023-05-05T01:15:03.121Z,235.15
2023-05-05T01:16:03.069Z,234.83
2023-05-05T01:17:03.034Z,234.94
2023-05-05T01:18:03.049Z,234.88
2023-05-05T01:19:02.986Z,235.38
2023-05-05T01:20:02.985Z,234.98
2023-05-05T01:21:02.954Z,235.39
2023-05-05T01:22:02.930Z,234.85
2023-05-05T01:23:02.916Z,234.92
2023-05-05T01:24:02.883Z,234.89
2023-05-05T01:25:02.874Z,235.03
2023-05-05T01:26:02.849Z,234.37
2023-05-05T01:27:02.812Z,234.91
2023-05-05T01:28:02.869Z,235.73
2023-05-05T01:29:02.775Z,234.29
2023-05-05T01:30:02.750Z,234.80
2023-05-05T01:31:02.735Z,234.49
2023-05-05T01:32:02.733Z,234.45
2023-05-05T01:33:02.687Z,234.62
2023-05-05T01:34:02.669Z,233.66
2023-05-05T01:35:02.637Z,234.86
2023-05-05T01:36:02.607Z,234.35
2023-05-05T01:37:02.578Z,234.07
2023-05-05T01:38:02.615Z,233.77
2023-05-05T01:39:02.648Z,234.38
2023-05-05T01:40:02.638Z,233.10
2023-05-05T01:41:02.647Z,233.90
2023-05-05T01:42:02.674Z,233.28
2023-05-05T01:43:02.701Z,233.73
2023-05-05T01:44:02.717Z,232.52
2023-05-05T01:45:02.726Z,233.34
2023-05-05T01:46:02.788Z,234.00
2023-05-05T01:47:02.750Z,233.41
2023-05-05T01:48:02.791Z,233.31
2023-05-05T01:49:02.791Z,233.83
2023-05-05T01:50:02.820Z,233.18
2023-05-05T01:51:02.830Z,233.15
2023-05-05T01:52:02.851Z,233.06
2023-05-05T01:53:02.836Z,233.14
2023-05-05T01:54:02.812Z,233.19
2023-05-05T01:55:02.783Z,233.47
2023-05-05T01:56:02.770Z,233.40
2023-05-05T01:57:02.747Z,233.64
2023-05-05T01:58:02.751Z,234.29
2023-05-05T01:59:02.710Z,234.43
2023-05-05T02:00:02.685Z,233.94
2023-05-05T02:01:02.712Z,233.68
2023-05-05T02:02:02.751Z,234.07
2023-05-05T02:03:02.783Z,233.36
2023-05-05T02:04:02.644Z,233.18
2023-05-05T02:05:02.624Z,233.31
2023-05-05T02:06:02.627Z,233.11
2023-05-05T02:07:02.583Z,233.83
2023-05-05T02:08:02.621Z,231.66
2023-05-05T02:09:02.547Z,233.73
2023-05-05T02:10:02.569Z,234.24
2023-05-05T02:11:02.581Z,233.39
2023-05-05T02:12:02.593Z,233.52
2023-05-05T02:13:02.685Z,233.18
2023-05-05T02:14:02.686Z,233.32
2023-05-05T02:15:02.623Z,233.40
2023-05-05T02:16:02.653Z,233.44
2023-05-05T02:17:02.572Z,233.56
2023-05-05T02:18:02.632Z,233.50
2023-05-05T02:19:02.539Z,233.75
2023-05-05T02:20:02.540Z,233.31
2023-05-05T02:21:02.499Z,233.50
2023-05-05T02:22:02.487Z,232.75
2023-05-05T02:23:02.473Z,232.74
2023-05-05T02:24:02.463Z,232.72
2023-05-05T02:25:02.448Z,233.16
2023-05-05T02:26:02.446Z,233.21
2023-05-05T02:27:02.415Z,233.34
2023-05-05T02:28:02.404Z,232.14
2023-05-05T02:29:02.375Z,232.85
2023-05-05T02:30:02.357Z,232.40
2023-05-05T02:31:02.406Z,232.92
2023-05-05T02:32:02.323Z,232.83
2023-05-05T02:33:02.338Z,232.72
2023-05-05T02:34:02.295Z,232.25
2023-05-05T02:35:02.330Z,231.76
2023-05-05T02:36:02.369Z,232.09
2023-05-05T02:37:02.356Z,231.58
2023-05-05T02:38:02.386Z,232.53
2023-05-05T02:39:02.368Z,232.59
2023-05-05T02:40:02.346Z,232.56
2023-05-05T02:41:02.349Z,232.81
2023-05-05T02:42:02.320Z,233.01
2023-05-05T02:43:02.330Z,232.12
2023-05-05T02:44:02.305Z,232.32
2023-05-05T02:45:02.283Z,232.27
2023-05-05T02:46:02.405Z,227.00
2023-05-05T02:47:02.239Z,218.38
2023-05-05T02:48:02.338Z,213.28
2023-05-05T02:49:02.228Z,213.29
2023-05-05T02:50:02.206Z,208.89
2023-05-05T02:51:02.197Z,201.27
2023-05-05T02:52:02.214Z,198.24
2023-05-05T02:53:02.184Z,192.85
2023-05-05T02:54:02.151Z,186.97
2023-05-05T02:55:02.153Z,182.36
2023-05-05T02:56:02.164Z,177.98
2023-05-05T02:57:02.146Z,172.99
2023-05-05T02:58:02.125Z,168.77
2023-05-05T02:59:02.083Z,165.19
2023-05-05T03:00:02.063Z,161.85
2023-05-05T03:01:02.061Z,158.63
2023-05-05T03:02:02.052Z,156.36
2023-05-05T03:03:02.096Z,152.58
2023-05-05T03:04:02.064Z,148.16
2023-05-05T03:05:02.126Z,145.61
2023-05-05T03:06:02.160Z,143.31
2023-05-05T03:07:02.209Z,140.17
2023-05-05T03:08:02.268Z,137.59
2023-05-05T03:09:02.304Z,135.67
2023-05-05T03:10:02.362Z,132.60
2023-05-05T03:11:02.426Z,129.55
2023-05-05T03:12:02.485Z,127.70
2023-05-05T03:13:02.547Z,126.14
2023-05-05T03:14:02.569Z,123.50
2023-05-05T03:15:02.527Z,120.86
2023-05-05T03:16:02.587Z,119.61
2023-05-05T03:17:02.580Z,117.72
2023-05-05T03:18:02.607Z,115.79
2023-05-05T03:19:02.589Z,113.43
2023-05-05T03:20:03.963Z,112.88
2023-05-05T03:21:02.606Z,111.68
2023-05-05T03:22:02.613Z,110.72
2023-05-05T03:23:02.642Z,108.22
2023-05-05T03:24:02.621Z,106.81
2023-05-05T03:25:02.620Z,105.65
2023-05-05T03:26:02.623Z,104.74
2023-05-05T03:27:02.603Z,105.47
2023-05-05T03:28:02.628Z,104.35
2023-05-05T03:29:02.645Z,102.25
2023-05-05T03:30:02.621Z,101.72
2023-05-05T03:31:02.607Z,101.15
2023-05-05T03:32:02.672Z,99.32
2023-05-05T03:33:02.644Z,98.49
2023-05-05T03:34:02.623Z,99.08
2023-05-05T03:35:02.615Z,96.80
2023-05-05T03:36:02.635Z,95.93
2023-05-05T03:37:02.628Z,94.76
2023-05-05T03:38:02.649Z,94.22
2023-05-05T03:39:02.656Z,94.74
2023-05-05T03:40:02.712Z,95.05
2023-05-05T03:41:02.674Z,93.78
2023-05-05T03:42:02.695Z,95.46
2023-05-05T03:43:02.718Z,93.84
2023-05-05T03:44:02.716Z,93.20
2023-05-05T03:45:02.745Z,91.61
2023-05-05T03:46:02.762Z,91.17
2023-05-05T03:47:02.749Z,91.22
2023-05-05T03:48:02.775Z,91.19
2023-05-05T03:49:02.740Z,91.27
2023-05-05T03:50:02.726Z,91.47
2023-05-05T03:51:02.718Z,91.75
2023-05-05T03:52:02.721Z,91.18
2023-05-05T03:53:02.728Z,91.30
2023-05-05T03:54:02.727Z,91.03
2023-05-05T03:55:02.730Z,91.54
2023-05-05T03:56:02.722Z,91.76
2023-05-05T03:57:02.710Z,91.37
2023-05-05T03:58:02.704Z,90.75
2023-05-05T03:59:02.714Z,89.82
2023-05-05T04:00:02.705Z,91.10
2023-05-05T04:01:02.700Z,91.29
2023-05-05T04:02:02.718Z,91.64
2023-05-05T04:03:02.772Z,92.56
2023-05-05T04:04:02.737Z,92.94
2023-05-05T04:05:02.671Z,93.37
2023-05-05T04:06:02.679Z,94.15
2023-05-05T04:07:02.680Z,94.58
2023-05-05T04:08:02.672Z,94.17
2023-05-05T04:09:02.698Z,94.27
2023-05-05T04:10:02.729Z,94.56
2023-05-05T04:11:02.807Z,94.55
2023-05-05T04:12:02.815Z,94.12
2023-05-05T04:13:02.928Z,94.68
2023-05-05T04:14:02.902Z,94.28
2023-05-05T04:15:02.956Z,94.71
2023-05-05T04:16:03.094Z,95.81
2023-05-05T04:17:03.037Z,95.33
2023-05-05T04:18:03.115Z,95.63
2023-05-05T04:19:03.114Z,95.48
2023-05-05T04:20:03.163Z,95.80
2023-05-05T04:21:03.216Z,95.47
2023-05-05T04:22:03.253Z,95.05
2023-05-05T04:23:03.241Z,95.07
2023-05-05T04:24:03.256Z,95.13
2023-05-05T04:25:03.239Z,94.82
2023-05-05T04:26:03.235Z,95.45
2023-05-05T04:27:03.232Z,95.58
2023-05-05T04:28:03.235Z,95.31
2023-05-05T04:29:03.252Z,95.71
2023-05-05T04:30:03.253Z,95.01
2023-05-05T04:31:03.324Z,93.90
2023-05-05T04:32:03.247Z,94.92
2023-05-05T04:33:03.339Z,94.52
2023-05-05T04:34:03.250Z,93.03
2023-05-05T04:35:03.267Z,93.80
2023-05-05T04:36:03.299Z,92.42
2023-05-05T04:37:03.363Z,94.33
2023-05-05T04:38:03.427Z,94.08
2023-05-05T04:39:03.461Z,93.34
2023-05-05T04:40:03.479Z,93.33
2023-05-05T04:41:03.553Z,93.03
2023-05-05T04:42:03.576Z,94.26
2023-05-05T04:43:03.645Z,93.52
2023-05-05T04:44:03.701Z,93.76
2023-05-05T04:45:03.748Z,95.17
2023-05-05T04:46:03.813Z,95.15
2023-05-05T04:47:03.832Z,94.48
2023-05-05T04:48:03.935Z,95.20
2023-05-05T04:49:03.933Z,95.56
2023-05-05T04:50:04.008Z,94.83
2023-05-05T04:51:04.040Z,95.50
2023-05-05T04:52:04.092Z,95.02
2023-05-05T04:53:04.079Z,95.06
2023-05-05T04:54:04.089Z,95.06
2023-05-05T04:55:04.106Z,95.20
2023-05-05T04:56:04.067Z,95.06
2023-05-05T04:57:04.063Z,94.56
2023-05-05T04:58:04.187Z,95.09
2023-05-05T04:59:04.099Z,95.31
2023-05-05T05:00:04.063Z,96.10
2023-05-05T05:01:04.050Z,97.79
2023-05-05T05:02:04.151Z,98.78
2023-05-05T05:03:04.119Z,103.68
2023-05-05T05:04:04.078Z,112.92
2023-05-05T05:05:04.088Z,117.85
2023-05-05T05:06:04.139Z,124.16
2023-05-05T05:07:04.179Z,127.45
2023-05-05T05:08:04.245Z,134.29
2023-05-05T05:09:04.286Z,138.19
2023-05-05T05:10:04.314Z,143.45
2023-05-05T05:11:04.333Z,145.63
2023-05-05T05:12:04.359Z,149.89
2023-05-05T05:13:04.433Z,151.56
2023-05-05T05:14:04.421Z,153.06
2023-05-05T05:15:04.448Z,155.08
2023-05-05T05:16:04.517Z,156.69
2023-05-05T05:17:04.472Z,158.38
2023-05-05T05:18:04.576Z,160.33
2023-05-05T05:19:04.522Z,160.74
2023-05-05T05:20:04.538Z,163.79
2023-05-05T05:21:04.562Z,164.89
2023-05-05T05:22:04.601Z,166.94
2023-05-05T05:23:04.647Z,169.47
2023-05-05T05:24:04.608Z,169.96
2023-05-05T05:25:04.619Z,171.36
2023-05-05T05:26:04.622Z,173.04
2023-05-05T05:27:04.647Z,174.10
2023-05-05T05:28:09.513Z,175.16
2023-05-05T05:29:05.640Z,175.31
2023-05-05T05:30:04.623Z,175.47
2023-05-05T05:31:04.633Z,176.59
2023-05-05T05:32:04.675Z,177.78
2023-05-05T05:33:04.626Z,180.24
2023-05-05T05:34:04.585Z,181.96
2023-05-05T05:35:04.580Z,180.99
2023-05-05T05:36:04.564Z,176.47
2023-05-05T05:37:04.567Z,175.60
2023-05-05T05:38:04.553Z,171.02
2023-05-05T05:39:04.568Z,163.73
2023-05-05T05:40:04.568Z,160.69
2023-05-05T05:41:04.548Z,163.14
2023-05-05T05:42:04.543Z,166.41
2023-05-05T05:43:04.579Z,167.96
2023-05-05T05:44:04.540Z,161.63
2023-05-05T05:45:04.518Z,161.66
2023-05-05T05:46:05.378Z,161.87
2023-05-05T05:47:04.526Z,163.40
2023-05-05T05:48:04.605Z,163.64
2023-05-05T05:49:04.600Z,155.91
2023-05-05T05:50:04.574Z,144.91
2023-05-05T05:51:04.596Z,150.21
2023-05-05T05:52:04.644Z,147.90
2023-05-05T05:53:04.724Z,137.91
2023-05-05T05:54:04.778Z,127.71
2023-05-05T05:55:04.811Z,121.91
2023-05-05T05:56:04.854Z,112.48
2023-05-05T05:57:04.970Z,106.69
2023-05-05T05:58:04.990Z,99.45
2023-05-05T05:59:05.035Z,93.98
2023-05-05T06:00:05.222Z,89.97
2023-05-05T06:01:05.169Z,86.67
2023-05-05T06:02:05.205Z,86.70
2023-05-05T06:03:05.377Z,86.86
2023-05-05T06:04:05.286Z,87.06
2023-05-05T06:05:05.252Z,94.08
2023-05-05T06:06:05.242Z,97.27
2023-05-05T06:07:05.244Z,96.64
2023-05-05T06:08:05.269Z,96.38
2023-05-05T06:09:05.283Z,96.93
2023-05-05T06:10:22.674Z,97.07
2023-05-05T06:11:06.358Z,97.02
2023-05-05T06:12:05.307Z,95.63
2023-05-05T06:13:05.362Z,95.41
2023-05-05T06:14:05.319Z,96.82
2023-05-05T06:15:05.320Z,96.34
2023-05-05T06:16:05.541Z,101.73
2023-05-05T06:17:05.332Z,106.72
2023-05-05T06:18:05.409Z,106.86
2023-05-05T06:19:05.354Z,107.48
2023-05-05T06:20:05.395Z,108.64
2023-05-05T06:21:05.367Z,111.98
2023-05-05T06:22:05.370Z,118.77
2023-05-05T06:23:05.382Z,124.66
2023-05-05T06:24:05.398Z,167.33
2023-05-05T06:25:05.422Z,139.41
2023-05-05T06:26:05.418Z,131.17
2023-05-05T06:27:05.418Z,125.98
2023-05-05T06:28:05.427Z,118.68
2023-05-05T06:29:05.423Z,115.81
2023-05-05T06:30:05.594Z,119.99
2023-05-05T06:31:05.454Z,123.14
2023-05-05T06:32:05.464Z,126.20
2023-05-05T06:33:05.505Z,126.25
2023-05-05T06:34:05.496Z,122.19
2023-05-05T06:35:05.497Z,120.38
2023-05-05T06:36:05.520Z,119.66
2023-05-05T06:37:05.509Z,122.45
2023-05-05T06:38:05.493Z,121.25
2023-05-05T06:39:05.521Z,125.43
2023-05-05T06:40:05.690Z,121.67
2023-05-05T06:41:05.637Z,119.11
2023-05-05T06:42:05.539Z,123.15
2023-05-05T06:43:05.660Z,124.86
2023-05-05T06:44:05.550Z,129.02
2023-05-05T06:45:05.521Z,134.81
2023-05-05T06:46:05.544Z,140.19
2023-05-05T06:47:05.563Z,144.11
2023-05-05T06:48:05.586Z,142.20
2023-05-05T06:49:05.542Z,137.83
2023-05-05T06:50:05.688Z,127.50
2023-05-05T06:51:05.530Z,127.07
2023-05-05T06:52:05.675Z,129.31
2023-05-05T06:53:05.521Z,121.39
2023-05-05T06:54:05.529Z,113.27
2023-05-05T06:55:05.531Z,116.19
2023-05-05T06:56:05.549Z,113.91
2023-05-05T06:57:05.543Z,118.71
2023-05-05T06:58:05.532Z,120.15
2023-05-05T06:59:05.541Z,110.93
2023-05-05T07:00:05.818Z,101.41
2023-05-05T07:01:05.626Z,95.31
2023-05-05T07:02:05.548Z,94.21
2023-05-05T07:03:05.585Z,94.31
2023-05-05T07:04:05.592Z,84.81
2023-05-05T07:05:05.543Z,79.31
2023-05-05T07:06:05.548Z,76.56
2023-05-05T07:07:05.566Z,83.76
2023-05-05T07:08:05.626Z,92.81
2023-05-05T07:09:05.570Z,98.58
2023-05-05T07:10:05.728Z,100.25
2023-05-05T07:11:05.583Z,93.20
2023-05-05T07:12:05.572Z,91.16
2023-05-05T07:13:05.606Z,106.78
2023-05-05T07:14:05.578Z,117.98
2023-05-05T07:15:15.780Z,112.74
2023-05-05T07:16:06.627Z,105.24
2023-05-05T07:17:05.574Z,109.69
2023-05-05T07:18:05.629Z,105.45
2023-05-05T07:19:05.570Z,95.35
2023-05-05T07:20:05.636Z,102.90
2023-05-05T07:21:05.562Z,99.04
2023-05-05T07:22:05.561Z,97.71
2023-05-05T07:23:05.612Z,94.13
2023-05-05T07:24:05.637Z,94.02
2023-05-05T07:25:05.593Z,95.25
2023-05-05T07:26:05.638Z,90.20
2023-05-05T07:27:05.611Z,89.94
2023-05-05T07:28:05.601Z,92.60
2023-05-05T07:29:05.569Z,97.30
2023-05-05T07:30:10.122Z,104.08
2023-05-05T07:31:06.572Z,104.13
2023-05-05T07:32:05.609Z,98.87
2023-05-05T07:33:05.599Z,95.86
2023-05-05T07:34:05.609Z,96.87
2023-05-05T07:35:05.556Z,97.79
2023-05-05T07:36:05.571Z,93.84
2023-05-05T07:37:05.550Z,94.55
2023-05-05T07:38:05.550Z,93.51
2023-05-05T07:39:05.595Z,104.05
2023-05-05T07:40:05.925Z,117.49
2023-05-05T07:41:05.544Z,126.02
2023-05-05T07:42:05.545Z,125.67
2023-05-05T07:43:05.547Z,113.79
2023-05-05T07:44:05.590Z,95.17
2023-05-05T07:45:05.574Z,93.02
2023-05-05T07:46:05.673Z,94.59
2023-05-05T07:47:05.649Z,88.87
2023-05-05T07:48:05.778Z,85.94
2023-05-05T07:49:05.760Z,84.83
2023-05-05T07:50:06.490Z,81.12
2023-05-05T07:51:05.842Z,72.13
2023-05-05T07:52:05.879Z,65.71
2023-05-05T07:53:14.566Z,65.43
2023-05-05T07:54:05.942Z,65.46
2023-05-05T07:55:05.922Z,65.64
2023-05-05T07:56:05.977Z,67.16
2023-05-05T07:57:05.899Z,67.25
2023-05-05T07:58:05.887Z,57.11
2023-05-05T07:59:05.916Z,65.45
2023-05-05T08:00:05.970Z,66.06
2023-05-05T08:01:05.885Z,68.16
2023-05-05T08:02:05.893Z,74.01
2023-05-05T08:03:07.191Z,83.66
2023-05-05T08:04:05.871Z,83.85
2023-05-05T08:05:06.092Z,83.72
2023-05-05T08:06:05.774Z,81.73
2023-05-05T08:07:05.791Z,85.85
2023-05-05T08:08:05.762Z,90.90
2023-05-05T08:09:05.782Z,99.55
2023-05-05T08:10:05.761Z,93.98
2023-05-05T08:11:05.832Z,91.08
2023-05-05T08:12:05.936Z,89.09
2023-05-05T08:13:05.790Z,77.09
2023-05-05T08:14:05.716Z,77.83
2023-05-05T08:15:05.905Z,71.18
2023-05-05T08:16:05.749Z,66.85
2023-05-05T08:17:05.671Z,63.12
2023-05-05T08:18:05.750Z,55.38
2023-05-05T08:19:14.607Z,57.29
2023-05-05T08:20:06.651Z,57.35
2023-05-05T08:21:05.649Z,57.53
2023-05-05T08:22:05.635Z,59.15
2023-05-05T08:23:05.636Z,63.11
2023-05-05T08:24:05.632Z,74.64
2023-05-05T08:25:05.686Z,78.30
2023-05-05T08:26:05.586Z,85.78
2023-05-05T08:27:05.578Z,82.59
2023-05-05T08:28:05.666Z,73.99
2023-05-05T08:29:05.607Z,72.85
2023-05-05T08:30:05.542Z,80.76
2023-05-05T08:31:05.664Z,89.80
2023-05-05T08:32:05.525Z,90.13
2023-05-05T08:33:05.562Z,91.86
2023-05-05T08:34:05.502Z,90.35
2023-05-05T08:35:05.615Z,48.78
2023-05-05T08:36:05.467Z,32.40
2023-05-05T08:37:05.459Z,35.59
2023-05-05T08:38:05.426Z,28.51
2023-05-05T08:39:05.436Z,19.99
2023-05-05T08:40:05.416Z,21.85
2023-05-05T08:41:05.414Z,18.90
2023-05-05T08:42:05.400Z,9.83
2023-05-05T08:43:05.396Z,0.68
2023-05-05T08:44:05.647Z,0.00
2023-05-05T08:45:05.647Z,0.00
2023-05-05T08:46:05.391Z,0.00
2023-05-05T08:47:05.436Z,13.08
2023-05-05T08:48:05.474Z,21.83
2023-05-05T08:49:05.472Z,25.00
2023-05-05T08:50:05.367Z,25.17
2023-05-05T08:51:05.752Z,26.85
2023-05-05T08:52:05.375Z,27.47
2023-05-05T08:53:05.605Z,35.84
2023-05-05T08:54:05.461Z,35.42
2023-05-05T08:55:05.606Z,44.58
2023-05-05T08:56:05.546Z,40.03
2023-05-05T08:57:05.601Z,37.87
2023-05-05T08:58:05.672Z,36.88
2023-05-05T08:59:05.774Z,50.72
2023-05-05T09:00:05.824Z,60.70
2023-05-05T09:01:05.808Z,70.70
2023-05-05T09:02:05.861Z,70.42
2023-05-05T09:03:06.017Z,78.12
2023-05-05T09:04:05.874Z,83.04
2023-05-05T09:05:05.871Z,84.87
2023-05-05T09:06:05.847Z,86.71
2023-05-05T09:07:05.895Z,88.20
2023-05-05T09:08:05.831Z,93.33
2023-05-05T09:09:05.869Z,93.22
2023-05-05T09:10:05.832Z,95.61
2023-05-05T09:11:05.849Z,98.40
2023-05-05T09:12:05.890Z,100.15
2023-05-05T09:13:05.971Z,103.20
2023-05-05T09:14:05.996Z,97.27
2023-05-05T09:15:06.120Z,88.77
2023-05-05T09:16:06.056Z,90.43
2023-05-05T09:17:05.984Z,87.09
2023-05-05T09:18:06.015Z,89.29
2023-05-05T09:19:05.942Z,92.83
2023-05-05T09:20:05.950Z,91.45
2023-05-05T09:21:05.917Z,89.32
2023-05-05T09:22:05.932Z,87.40
2023-05-05T09:23:05.902Z,87.82
2023-05-05T09:24:08.244Z,88.53
2023-05-05T09:25:06.082Z,89.93
2023-05-05T09:26:05.875Z,90.48
2023-05-05T09:27:05.845Z,91.77
2023-05-05T09:28:05.853Z,92.77
2023-05-05T09:29:05.891Z,96.50
2023-05-05T09:30:05.834Z,97.02
2023-05-05T09:31:05.937Z,93.48
2023-05-05T09:32:05.906Z,96.91
2023-05-05T09:33:05.854Z,96.98
2023-05-05T09:34:05.756Z,97.06
2023-05-05T09:35:05.773Z,95.23
2023-05-05T09:36:05.737Z,94.12
2023-05-05T09:37:05.733Z,94.15
2023-05-05T09:38:05.712Z,93.97
2023-05-05T09:39:05.692Z,91.88
2023-05-05T09:40:05.707Z,92.29
2023-05-05T09:41:05.726Z,100.01
2023-05-05T09:42:05.784Z,82.38
2023-05-05T09:43:05.811Z,75.36
2023-05-05T09:44:05.896Z,58.72
2023-05-05T09:45:05.921Z,37.79
2023-05-05T09:46:05.989Z,25.23
2023-05-05T09:47:18.161Z,32.91
2023-05-05T09:48:07.111Z,33.29
2023-05-05T09:49:06.022Z,35.14
2023-05-05T09:50:06.222Z,38.66
2023-05-05T09:51:05.925Z,47.09
2023-05-05T09:52:05.936Z,63.74
2023-05-05T09:53:05.930Z,64.80
2023-05-05T09:54:05.909Z,73.08
2023-05-05T09:55:05.967Z,72.22
2023-05-05T09:56:05.928Z,77.57
2023-05-05T09:57:06.017Z,80.72
2023-05-05T09:58:06.033Z,83.41
2023-05-05T09:59:06.016Z,83.21
2023-05-05T10:00:06.160Z,80.99
2023-05-05T10:01:06.148Z,86.45
2023-05-05T10:02:06.106Z,91.13
2023-05-05T10:03:06.183Z,95.31
2023-05-05T10:04:06.328Z,104.41
2023-05-05T10:05:06.263Z,112.02
2023-05-05T10:06:06.169Z,119.82
2023-05-05T10:07:06.175Z,127.34
2023-05-05T10:08:06.209Z,138.05
2023-05-05T10:09:06.200Z,147.59
2023-05-05T10:10:06.321Z,155.09
2023-05-05T10:11:06.165Z,155.41
2023-05-05T10:12:06.145Z,157.61
2023-05-05T10:13:06.145Z,163.18
2023-05-05T10:14:06.096Z,173.54
2023-05-05T10:15:06.119Z,192.44
2023-05-05T10:16:06.087Z,200.22
2023-05-05T10:17:06.078Z,206.97
2023-05-05T10:18:08.174Z,211.09
2023-05-05T10:19:06.245Z,217.20
2023-05-05T10:20:06.446Z,223.30
2023-05-05T10:21:06.176Z,227.97
2023-05-05T10:22:06.168Z,231.58
2023-05-05T10:23:06.164Z,236.42
2023-05-05T10:24:06.185Z,241.20
2023-05-05T10:25:06.148Z,245.21
2023-05-05T10:26:06.113Z,245.38
2023-05-05T10:27:06.116Z,246.51
2023-05-05T10:28:06.085Z,249.41
2023-05-05T10:29:06.084Z,254.92
2023-05-05T10:30:06.211Z,263.36
2023-05-05T10:31:16.487Z,258.50
2023-05-05T10:32:27.121Z,258.65
2023-05-05T10:33:22.862Z,258.82
2023-05-05T10:34:07.085Z,258.99
2023-05-05T10:35:05.951Z,260.75
2023-05-05T10:36:06.035Z,228.41
2023-05-05T10:37:05.924Z,181.61
2023-05-05T10:38:05.880Z,134.10
2023-05-05T10:39:05.863Z,82.72
2023-05-05T10:40:05.978Z,76.11
2023-05-05T10:41:05.849Z,61.82
2023-05-05T10:42:05.827Z,44.77
2023-05-05T10:43:05.794Z,46.43
2023-05-05T10:44:05.849Z,50.07
2023-05-05T10:45:05.810Z,50.41
2023-05-05T10:46:05.812Z,56.79
2023-05-05T10:47:05.784Z,50.06
2023-05-05T10:48:05.838Z,45.16
2023-05-05T10:49:05.789Z,49.30
2023-05-05T10:50:05.796Z,51.87
2023-05-05T10:51:05.696Z,46.78
2023-05-05T10:52:05.850Z,46.90
2023-05-05T10:53:05.678Z,51.92
2023-05-05T10:54:05.701Z,47.50
2023-05-05T10:55:05.654Z,35.15
2023-05-05T10:56:05.625Z,21.32
2023-05-05T10:57:05.606Z,21.91
2023-05-05T10:58:05.595Z,15.22
2023-05-05T10:59:05.614Z,7.92
2023-05-05T11:00:05.646Z,11.49
2023-05-05T11:01:05.628Z,19.02
2023-05-05T11:02:05.584Z,24.18
2023-05-05T11:03:05.566Z,27.15
2023-05-05T11:04:05.643Z,26.13
2023-05-05T11:05:05.487Z,26.09
2023-05-05T11:06:05.464Z,19.01
2023-05-05T11:07:05.655Z,14.67
2023-05-05T11:08:05.420Z,8.31
2023-05-05T11:09:05.402Z,6.19
2023-05-05T11:10:05.486Z,24.72
2023-05-05T11:11:05.356Z,26.45
2023-05-05T11:12:05.328Z,20.32
2023-05-05T11:13:05.335Z,19.78
2023-05-05T11:14:05.348Z,25.00
2023-05-05T11:15:05.377Z,19.77
2023-05-05T11:16:05.654Z,25.70
2023-05-05T11:17:05.430Z,27.05
2023-05-05T11:18:07.331Z,29.20
2023-05-05T11:19:05.896Z,28.43
2023-05-05T11:20:05.832Z,27.22
2023-05-05T11:21:05.687Z,24.16
2023-05-05T11:22:05.635Z,27.80
2023-05-05T11:23:05.700Z,29.96
2023-05-05T11:24:05.659Z,35.94
2023-05-05T11:25:05.586Z,50.89
2023-05-05T11:26:05.594Z,62.75
2023-05-05T11:27:05.570Z,33.77
2023-05-05T11:28:05.528Z,32.28
2023-05-05T11:29:05.533Z,25.20
2023-05-05T11:30:05.555Z,23.01
2023-05-05T11:31:05.531Z,22.36
2023-05-05T11:32:05.426Z,24.94
2023-05-05T11:33:05.440Z,37.55
2023-05-05T11:34:05.381Z,44.56
2023-05-05T11:35:05.395Z,52.25
2023-05-05T11:36:06.769Z,56.86
2023-05-05T11:37:05.404Z,45.84
2023-05-05T11:38:05.439Z,57.61
2023-05-05T11:39:05.461Z,68.01
2023-05-05T11:40:05.662Z,77.99
2023-05-05T11:41:05.506Z,84.62
2023-05-05T11:42:10.371Z,77.04
2023-05-05T11:43:06.502Z,77.45
2023-05-05T11:44:05.474Z,79.96
2023-05-05T11:45:05.454Z,82.09
2023-05-05T11:46:05.451Z,81.36
2023-05-05T11:47:05.446Z,81.44
2023-05-05T11:48:05.442Z,67.94
2023-05-05T11:49:05.369Z,79.19
2023-05-05T11:50:05.376Z,90.11
2023-05-05T11:51:05.306Z,75.38
2023-05-05T11:52:05.296Z,79.24
2023-05-05T11:53:05.281Z,91.92
2023-05-05T11:54:05.277Z,103.20
2023-05-05T11:55:05.260Z,112.44
2023-05-05T11:56:05.446Z,118.28
2023-05-05T11:57:05.198Z,119.97
2023-05-05T11:58:05.215Z,121.09
2023-05-05T11:59:05.206Z,121.15
2023-05-05T12:00:05.221Z,121.81
2023-05-05T12:01:05.154Z,124.24
2023-05-05T12:02:05.125Z,130.17
2023-05-05T12:03:05.333Z,142.74
2023-05-05T12:04:05.255Z,149.13
2023-05-05T12:05:05.083Z,154.20
2023-05-05T12:06:05.031Z,158.76
2023-05-05T12:07:05.001Z,162.53
2023-05-05T12:08:05.009Z,166.41
2023-05-05T12:09:04.968Z,168.81
2023-05-05T12:10:05.025Z,171.18
2023-05-05T12:11:04.954Z,131.85
2023-05-05T12:12:04.973Z,120.63
2023-05-05T12:13:04.966Z,108.83
2023-05-05T12:14:04.934Z,103.92
2023-05-05T12:15:04.953Z,111.24
2023-05-05T12:16:04.969Z,118.98
2023-05-05T12:17:04.996Z,104.78
2023-05-05T12:18:05.081Z,97.50
2023-05-05T12:19:05.007Z,96.66
2023-05-05T12:20:05.041Z,97.84
2023-05-05T12:21:05.016Z,80.87
2023-05-05T12:22:05.045Z,90.53
2023-05-05T12:23:05.029Z,91.63
2023-05-05T12:24:05.056Z,92.35
2023-05-05T12:25:05.069Z,100.65
2023-05-05T12:26:05.070Z,89.51
2023-05-05T12:27:05.076Z,106.48
2023-05-05T12:28:05.152Z,119.74
2023-05-05T12:29:05.146Z,117.46
2023-05-05T12:30:05.150Z,123.80
2023-05-05T12:31:05.179Z,132.20
2023-05-05T12:32:05.250Z,122.51
2023-05-05T12:33:05.257Z,133.06
2023-05-05T12:34:05.227Z,143.93
2023-05-05T12:35:05.241Z,150.96
2023-05-05T12:36:05.236Z,157.96
2023-05-05T12:37:05.252Z,159.85
2023-05-05T12:38:05.290Z,160.99
2023-05-05T12:39:05.524Z,161.72